sensor_id;sensor_type;location;lat;lon;timestamp;P1;durP1;ratioP1;P2;durP2;ratioP2
51877;SDS011;37911;51.526;11.536;2023-08-12T00:00:31;13.30;;;4.05;;
51877;SDS011;37911;51.526;11.536;2023-08-12T00:03:36;13.75;;;3.80;;
51877;SDS011;37911;51.526;11.536;2023-08-12T00:06:40;9.68;;;3.70;;
51877;SDS011;37911;51.526;11.536;2023-08-12T00:09:43;20.08;;;4.00;;
51877;SDS011;37911;51.526;11.536;2023-08-12T00:12:50;11.82;;;3.65;;
51877;SDS011;37911;51.526;11.536;2023-08-12T00:15:53;10.43;;;3.72;;
51877;SDS011;37911;51.526;11.536;2023-08-12T00:18:57;9.20;;;3.60;;
51877;SDS011;37911;51.526;11.536;2023-08-12T00:22:01;11.10;;;3.58;;
51877;SDS011;37911;51.526;11.536;2023-08-12T00:25:05;7.50;;;3.95;;
51877;SDS011;37911;51.526;11.536;2023-08-12T00:28:12;9.32;;;3.53;;
51877;SDS011;37911;51.526;11.536;2023-08-12T00:31:15;10.35;;;3.70;;
51877;SDS011;37911;51.526;11.536;2023-08-12T00:34:21;11.15;;;3.90;;
51877;SDS011;37911;51.526;11.536;2023-08-12T00:37:24;10.63;;;4.07;;
51877;SDS011;37911;51.526;11.536;2023-08-12T00:40:28;15.98;;;3.72;;
51877;SDS011;37911;51.526;11.536;2023-08-12T00:43:34;8.32;;;3.65;;
51877;SDS011;37911;51.526;11.536;2023-08-12T00:46:38;8.45;;;3.35;;
51877;SDS011;37911;51.526;11.536;2023-08-12T00:49:43;11.93;;;3.78;;
51877;SDS011;37911;51.526;11.536;2023-08-12T00:52:47;11.80;;;3.50;;
51877;SDS011;37911;51.526;11.536;2023-08-12T00:55:51;13.65;;;3.72;;
51877;SDS011;37911;51.526;11.536;2023-08-12T00:58:57;16.95;;;4.43;;
51877;SDS011;37911;51.526;11.536;2023-08-12T01:02:02;12.55;;;4.00;;
51877;SDS011;37911;51.526;11.536;2023-08-12T01:05:06;14.20;;;3.80;;
51877;SDS011;37911;51.526;11.536;2023-08-12T01:08:10;10.88;;;3.63;;
51877;SDS011;37911;51.526;11.536;2023-08-12T01:11:14;7.38;;;3.47;;
51877;SDS011;37911;51.526;11.536;2023-08-12T01:14:27;9.80;;;3.78;;
51877;SDS011;37911;51.526;11.536;2023-08-12T01:17:37;12.20;;;3.95;;
51877;SDS011;37911;51.526;11.536;2023-08-12T01:20:43;14.52;;;3.90;;
51877;SDS011;37911;51.526;11.536;2023-08-12T01:23:50;12.45;;;3.40;;
51877;SDS011;37911;51.526;11.536;2023-08-12T01:26:53;15.82;;;4.05;;
51877;SDS011;37911;51.526;11.536;2023-08-12T01:29:57;11.05;;;4.22;;
51877;SDS011;37911;51.526;11.536;2023-08-12T01:33:01;12.80;;;3.95;;
51877;SDS011;37911;51.526;11.536;2023-08-12T01:36:11;13.15;;;3.80;;
51877;SDS011;37911;51.526;11.536;2023-08-12T01:39:21;12.88;;;3.55;;
51877;SDS011;37911;51.526;11.536;2023-08-12T01:42:26;10.25;;;4.10;;
51877;SDS011;37911;51.526;11.536;2023-08-12T01:45:31;11.20;;;3.60;;
51877;SDS011;37911;51.526;11.536;2023-08-12T01:48:35;9.27;;;3.90;;
51877;SDS011;37911;51.526;11.536;2023-08-12T01:51:39;16.08;;;3.70;;
51877;SDS011;37911;51.526;11.536;2023-08-12T01:54:45;11.80;;;3.50;;
51877;SDS011;37911;51.526;11.536;2023-08-12T01:57:48;9.70;;;3.60;;
51877;SDS011;37911;51.526;11.536;2023-08-12T02:00:52;14.50;;;3.25;;
51877;SDS011;37911;51.526;11.536;2023-08-12T02:03:56;12.55;;;3.60;;
51877;SDS011;37911;51.526;11.536;2023-08-12T02:06:59;13.27;;;3.92;;
51877;SDS011;37911;51.526;11.536;2023-08-12T02:10:06;11.27;;;3.75;;
51877;SDS011;37911;51.526;11.536;2023-08-12T02:13:10;10.55;;;3.83;;
51877;SDS011;37911;51.526;11.536;2023-08-12T02:16:13;9.30;;;3.47;;
51877;SDS011;37911;51.526;11.536;2023-08-12T02:19:17;17.60;;;3.80;;
51877;SDS011;37911;51.526;11.536;2023-08-12T02:22:22;12.38;;;3.70;;
51877;SDS011;37911;51.526;11.536;2023-08-12T02:25:28;8.65;;;3.10;;
51877;SDS011;37911;51.526;11.536;2023-08-12T02:28:33;19.58;;;3.65;;
51877;SDS011;37911;51.526;11.536;2023-08-12T02:31:37;15.15;;;3.90;;
51877;SDS011;37911;51.526;11.536;2023-08-12T02:34:40;11.20;;;3.58;;
51877;SDS011;37911;51.526;11.536;2023-08-12T02:37:44;10.77;;;3.60;;
51877;SDS011;37911;51.526;11.536;2023-08-12T02:40:50;12.90;;;3.78;;
51877;SDS011;37911;51.526;11.536;2023-08-12T02:43:54;12.23;;;3.25;;
51877;SDS011;37911;51.526;11.536;2023-08-12T02:46:58;12.13;;;3.38;;
51877;SDS011;37911;51.526;11.536;2023-08-12T02:50:01;15.48;;;3.78;;
51877;SDS011;37911;51.526;11.536;2023-08-12T02:53:05;6.78;;;3.40;;
51877;SDS011;37911;51.526;11.536;2023-08-12T02:56:11;13.32;;;3.70;;
51877;SDS011;37911;51.526;11.536;2023-08-12T02:59:16;12.30;;;3.72;;
51877;SDS011;37911;51.526;11.536;2023-08-12T03:02:19;11.80;;;3.58;;
51877;SDS011;37911;51.526;11.536;2023-08-12T03:05:23;9.07;;;3.97;;
51877;SDS011;37911;51.526;11.536;2023-08-12T03:08:27;10.68;;;3.42;;
51877;SDS011;37911;51.526;11.536;2023-08-12T03:11:33;16.75;;;3.65;;
51877;SDS011;37911;51.526;11.536;2023-08-12T03:14:39;9.23;;;3.55;;
51877;SDS011;37911;51.526;11.536;2023-08-12T03:17:44;11.10;;;3.63;;
51877;SDS011;37911;51.526;11.536;2023-08-12T03:20:47;13.80;;;3.40;;
51877;SDS011;37911;51.526;11.536;2023-08-12T03:23:52;8.10;;;3.90;;
51877;SDS011;37911;51.526;11.536;2023-08-12T03:26:58;8.25;;;3.30;;
51877;SDS011;37911;51.526;11.536;2023-08-12T03:30:03;10.70;;;3.58;;
51877;SDS011;37911;51.526;11.536;2023-08-12T03:33:08;10.13;;;3.22;;
51877;SDS011;37911;51.526;11.536;2023-08-12T03:36:12;11.35;;;3.25;;
51877;SDS011;37911;51.526;11.536;2023-08-12T03:39:16;9.38;;;2.97;;
51877;SDS011;37911;51.526;11.536;2023-08-12T03:42:23;9.70;;;3.35;;
51877;SDS011;37911;51.526;11.536;2023-08-12T03:45:27;10.90;;;4.05;;
51877;SDS011;37911;51.526;11.536;2023-08-12T03:48:30;16.23;;;3.47;;
51877;SDS011;37911;51.526;11.536;2023-08-12T03:51:34;11.82;;;3.70;;
51877;SDS011;37911;51.526;11.536;2023-08-12T03:54:38;13.73;;;3.42;;
51877;SDS011;37911;51.526;11.536;2023-08-12T03:57:44;15.75;;;3.20;;
51877;SDS011;37911;51.526;11.536;2023-08-12T04:00:47;13.60;;;4.18;;
51877;SDS011;37911;51.526;11.536;2023-08-12T04:03:51;14.20;;;4.00;;
51877;SDS011;37911;51.526;11.536;2023-08-12T04:06:54;6.75;;;3.40;;
51877;SDS011;37911;51.526;11.536;2023-08-12T04:09:58;7.88;;;3.38;;
51877;SDS011;37911;51.526;11.536;2023-08-12T04:13:04;10.27;;;3.33;;
51877;SDS011;37911;51.526;11.536;2023-08-12T04:16:07;14.38;;;3.45;;
51877;SDS011;37911;51.526;11.536;2023-08-12T04:19:11;12.80;;;3.75;;
51877;SDS011;37911;51.526;11.536;2023-08-12T04:22:14;10.35;;;3.13;;
51877;SDS011;37911;51.526;11.536;2023-08-12T04:25:18;10.38;;;3.20;;
51877;SDS011;37911;51.526;11.536;2023-08-12T04:28:25;8.55;;;3.20;;
51877;SDS011;37911;51.526;11.536;2023-08-12T04:31:28;12.07;;;3.40;;
51877;SDS011;37911;51.526;11.536;2023-08-12T04:34:32;12.98;;;3.55;;
51877;SDS011;37911;51.526;11.536;2023-08-12T04:37:37;9.93;;;3.85;;
51877;SDS011;37911;51.526;11.536;2023-08-12T04:40:42;11.35;;;3.60;;
51877;SDS011;37911;51.526;11.536;2023-08-12T04:43:49;10.55;;;3.47;;
51877;SDS011;37911;51.526;11.536;2023-08-12T04:46:53;9.85;;;4.03;;
51877;SDS011;37911;51.526;11.536;2023-08-12T04:49:56;11.43;;;3.50;;
51877;SDS011;37911;51.526;11.536;2023-08-12T04:53:01;5.80;;;3.22;;
51877;SDS011;37911;51.526;11.536;2023-08-12T04:56:05;8.13;;;3.38;;
51877;SDS011;37911;51.526;11.536;2023-08-12T04:59:11;5.57;;;2.85;;
51877;SDS011;37911;51.526;11.536;2023-08-12T05:02:16;13.88;;;3.40;;
51877;SDS011;37911;51.526;11.536;2023-08-12T05:05:21;6.30;;;3.00;;
51877;SDS011;37911;51.526;11.536;2023-08-12T05:08:25;9.63;;;3.20;;
51877;SDS011;37911;51.526;11.536;2023-08-12T05:11:29;8.13;;;3.40;;
51877;SDS011;37911;51.526;11.536;2023-08-12T05:14:35;6.63;;;3.30;;
51877;SDS011;37911;51.526;11.536;2023-08-12T05:17:41;9.35;;;3.47;;
51877;SDS011;37911;51.526;11.536;2023-08-12T05:20:47;7.57;;;3.50;;
51877;SDS011;37911;51.526;11.536;2023-08-12T05:23:51;9.45;;;3.92;;
51877;SDS011;37911;51.526;11.536;2023-08-12T05:26:56;9.02;;;3.60;;
51877;SDS011;37911;51.526;11.536;2023-08-12T05:30:02;10.70;;;3.85;;
51877;SDS011;37911;51.526;11.536;2023-08-12T05:33:06;14.18;;;3.90;;
51877;SDS011;37911;51.526;11.536;2023-08-12T05:36:09;11.52;;;4.00;;
51877;SDS011;37911;51.526;11.536;2023-08-12T05:39:13;6.68;;;3.60;;
51877;SDS011;37911;51.526;11.536;2023-08-12T05:42:16;15.13;;;3.80;;
51877;SDS011;37911;51.526;11.536;2023-08-12T05:45:22;12.48;;;3.90;;
51877;SDS011;37911;51.526;11.536;2023-08-12T05:48:26;8.77;;;3.40;;
51877;SDS011;37911;51.526;11.536;2023-08-12T05:51:29;11.35;;;3.92;;
51877;SDS011;37911;51.526;11.536;2023-08-12T05:54:33;13.18;;;3.85;;
51877;SDS011;37911;51.526;11.536;2023-08-12T05:57:38;10.65;;;3.95;;
51877;SDS011;37911;51.526;11.536;2023-08-12T06:00:44;15.27;;;3.67;;
51877;SDS011;37911;51.526;11.536;2023-08-12T06:03:48;11.73;;;3.97;;
51877;SDS011;37911;51.526;11.536;2023-08-12T06:06:52;11.07;;;3.95;;
51877;SDS011;37911;51.526;11.536;2023-08-12T06:09:55;13.07;;;3.95;;
51877;SDS011;37911;51.526;11.536;2023-08-12T06:12:59;9.93;;;4.03;;
51877;SDS011;37911;51.526;11.536;2023-08-12T06:16:05;9.95;;;4.10;;
51877;SDS011;37911;51.526;11.536;2023-08-12T06:19:09;15.77;;;3.95;;
51877;SDS011;37911;51.526;11.536;2023-08-12T06:22:12;13.30;;;4.18;;
51877;SDS011;37911;51.526;11.536;2023-08-12T06:25:15;16.50;;;4.32;;
51877;SDS011;37911;51.526;11.536;2023-08-12T06:28:19;12.77;;;5.00;;
51877;SDS011;37911;51.526;11.536;2023-08-12T06:31:25;19.05;;;5.18;;
51877;SDS011;37911;51.526;11.536;2023-08-12T06:34:29;18.00;;;5.63;;
51877;SDS011;37911;51.526;11.536;2023-08-12T06:37:32;20.50;;;4.78;;
51877;SDS011;37911;51.526;11.536;2023-08-12T06:40:37;14.30;;;4.80;;
51877;SDS011;37911;51.526;11.536;2023-08-12T06:43:41;14.90;;;5.22;;
51877;SDS011;37911;51.526;11.536;2023-08-12T06:46:47;12.95;;;4.50;;
51877;SDS011;37911;51.526;11.536;2023-08-12T06:49:50;10.18;;;4.43;;
51877;SDS011;37911;51.526;11.536;2023-08-12T06:52:54;15.25;;;4.78;;
51877;SDS011;37911;51.526;11.536;2023-08-12T06:55:57;12.80;;;4.88;;
51877;SDS011;37911;51.526;11.536;2023-08-12T06:59:01;11.93;;;4.60;;
51877;SDS011;37911;51.526;11.536;2023-08-12T07:02:07;10.23;;;4.53;;
51877;SDS011;37911;51.526;11.536;2023-08-12T07:05:10;9.27;;;4.20;;
51877;SDS011;37911;51.526;11.536;2023-08-12T07:08:13;13.45;;;5.25;;
51877;SDS011;37911;51.526;11.536;2023-08-12T07:11:17;18.05;;;5.57;;
51877;SDS011;37911;51.526;11.536;2023-08-12T07:14:20;11.57;;;5.13;;
51877;SDS011;37911;51.526;11.536;2023-08-12T07:17:26;12.20;;;5.10;;
51877;SDS011;37911;51.526;11.536;2023-08-12T07:20:30;15.75;;;4.88;;
51877;SDS011;37911;51.526;11.536;2023-08-12T07:23:33;16.23;;;5.80;;
51877;SDS011;37911;51.526;11.536;2023-08-12T07:26:37;39.55;;;25.80;;
51877;SDS011;37911;51.526;11.536;2023-08-12T07:29:40;19.58;;;7.57;;
51877;SDS011;37911;51.526;11.536;2023-08-12T07:32:46;20.35;;;5.80;;
51877;SDS011;37911;51.526;11.536;2023-08-12T07:35:49;18.70;;;6.72;;
51877;SDS011;37911;51.526;11.536;2023-08-12T07:38:53;15.07;;;6.38;;
51877;SDS011;37911;51.526;11.536;2023-08-12T07:41:56;16.27;;;7.07;;
51877;SDS011;37911;51.526;11.536;2023-08-12T07:45:00;13.27;;;6.93;;
51877;SDS011;37911;51.526;11.536;2023-08-12T07:48:06;16.23;;;6.43;;
51877;SDS011;37911;51.526;11.536;2023-08-12T07:51:10;13.65;;;6.72;;
51877;SDS011;37911;51.526;11.536;2023-08-12T07:54:13;13.82;;;7.30;;
51877;SDS011;37911;51.526;11.536;2023-08-12T07:57:17;16.00;;;7.20;;
51877;SDS011;37911;51.526;11.536;2023-08-12T08:00:24;22.83;;;7.57;;
51877;SDS011;37911;51.526;11.536;2023-08-12T08:03:30;12.15;;;6.38;;
51877;SDS011;37911;51.526;11.536;2023-08-12T08:06:33;15.07;;;7.13;;
51877;SDS011;37911;51.526;11.536;2023-08-12T08:09:37;13.82;;;7.22;;
51877;SDS011;37911;51.526;11.536;2023-08-12T08:12:40;13.20;;;6.88;;
51877;SDS011;37911;51.526;11.536;2023-08-12T08:15:44;13.32;;;7.20;;
51877;SDS011;37911;51.526;11.536;2023-08-12T08:18:51;33.50;;;18.40;;
51877;SDS011;37911;51.526;11.536;2023-08-12T08:21:54;21.42;;;13.93;;
51877;SDS011;37911;51.526;11.536;2023-08-12T08:24:58;19.17;;;10.90;;
51877;SDS011;37911;51.526;11.536;2023-08-12T08:28:02;16.23;;;11.05;;
51877;SDS011;37911;51.526;11.536;2023-08-12T08:31:06;16.50;;;9.98;;
51877;SDS011;37911;51.526;11.536;2023-08-12T08:34:12;19.02;;;8.82;;
51877;SDS011;37911;51.526;11.536;2023-08-12T08:37:16;18.88;;;9.30;;
51877;SDS011;37911;51.526;11.536;2023-08-12T08:40:19;26.27;;;16.77;;
51877;SDS011;37911;51.526;11.536;2023-08-12T08:43:23;17.23;;;11.00;;
51877;SDS011;37911;51.526;11.536;2023-08-12T08:46:29;16.00;;;8.30;;
51877;SDS011;37911;51.526;11.536;2023-08-12T08:49:35;9.30;;;5.13;;
51877;SDS011;37911;51.526;11.536;2023-08-12T08:52:39;9.75;;;4.82;;
51877;SDS011;37911;51.526;11.536;2023-08-12T08:55:43;8.98;;;4.72;;
51877;SDS011;37911;51.526;11.536;2023-08-12T08:58:48;11.73;;;4.90;;
51877;SDS011;37911;51.526;11.536;2023-08-12T09:01:51;8.85;;;4.97;;
51877;SDS011;37911;51.526;11.536;2023-08-12T09:04:59;11.18;;;5.05;;
51877;SDS011;37911;51.526;11.536;2023-08-12T09:08:04;9.80;;;4.85;;
51877;SDS011;37911;51.526;11.536;2023-08-12T09:11:11;11.70;;;4.65;;
51877;SDS011;37911;51.526;11.536;2023-08-12T09:14:16;13.23;;;5.15;;
51877;SDS011;37911;51.526;11.536;2023-08-12T09:17:20;7.68;;;4.40;;
51877;SDS011;37911;51.526;11.536;2023-08-12T09:20:26;9.82;;;5.03;;
51877;SDS011;37911;51.526;11.536;2023-08-12T09:23:33;8.93;;;5.15;;
51877;SDS011;37911;51.526;11.536;2023-08-12T09:26:37;41.35;;;31.65;;
51877;SDS011;37911;51.526;11.536;2023-08-12T09:29:41;21.08;;;14.23;;
51877;SDS011;37911;51.526;11.536;2023-08-12T09:32:45;225.38;;;183.45;;
51877;SDS011;37911;51.526;11.536;2023-08-12T09:36:05;190.18;;;59.80;;
51877;SDS011;37911;51.526;11.536;2023-08-12T09:39:09;23.27;;;14.38;;
51877;SDS011;37911;51.526;11.536;2023-08-12T09:42:13;20.92;;;12.23;;
51877;SDS011;37911;51.526;11.536;2023-08-12T09:45:20;18.77;;;11.65;;
51877;SDS011;37911;51.526;11.536;2023-08-12T09:48:28;11.25;;;6.40;;
51877;SDS011;37911;51.526;11.536;2023-08-12T09:51:36;11.80;;;6.60;;
51877;SDS011;37911;51.526;11.536;2023-08-12T09:54:42;12.07;;;5.60;;
51877;SDS011;37911;51.526;11.536;2023-08-12T09:57:47;14.35;;;6.03;;
51877;SDS011;37911;51.526;11.536;2023-08-12T10:00:53;10.20;;;5.40;;
51877;SDS011;37911;51.526;11.536;2023-08-12T10:03:57;12.93;;;5.10;;
51877;SDS011;37911;51.526;11.536;2023-08-12T10:07:04;9.77;;;5.43;;
51877;SDS011;37911;51.526;11.536;2023-08-12T10:10:08;13.40;;;5.30;;
51877;SDS011;37911;51.526;11.536;2023-08-12T10:13:13;16.67;;;5.30;;
51877;SDS011;37911;51.526;11.536;2023-08-12T10:16:19;12.48;;;5.13;;
51877;SDS011;37911;51.526;11.536;2023-08-12T10:19:23;10.85;;;5.00;;
51877;SDS011;37911;51.526;11.536;2023-08-12T10:22:30;9.55;;;5.07;;
51877;SDS011;37911;51.526;11.536;2023-08-12T10:25:35;10.48;;;4.60;;
51877;SDS011;37911;51.526;11.536;2023-08-12T10:28:40;7.32;;;4.82;;
51877;SDS011;37911;51.526;11.536;2023-08-12T10:31:45;10.07;;;5.13;;
51877;SDS011;37911;51.526;11.536;2023-08-12T10:34:53;23.92;;;18.65;;
51877;SDS011;37911;51.526;11.536;2023-08-12T10:38:00;31.52;;;22.90;;
51877;SDS011;37911;51.526;11.536;2023-08-12T10:41:15;13.68;;;9.15;;
51877;SDS011;37911;51.526;11.536;2023-08-12T10:44:22;10.18;;;4.53;;
51877;SDS011;37911;51.526;11.536;2023-08-12T10:47:30;17.83;;;11.48;;
51877;SDS011;37911;51.526;11.536;2023-08-12T10:50:35;24.13;;;14.77;;
51877;SDS011;37911;51.526;11.536;2023-08-12T10:53:41;13.43;;;5.63;;
51877;SDS011;37911;51.526;11.536;2023-08-12T11:00:13;9.50;;;3.97;;
51877;SDS011;37911;51.526;11.536;2023-08-12T11:03:17;13.65;;;6.70;;
51877;SDS011;37911;51.526;11.536;2023-08-12T11:06:22;10.32;;;7.57;;
51877;SDS011;37911;51.526;11.536;2023-08-12T11:09:28;27.25;;;20.55;;
51877;SDS011;37911;51.526;11.536;2023-08-12T11:12:32;7.53;;;4.15;;
51877;SDS011;37911;51.526;11.536;2023-08-12T11:15:39;8.00;;;4.68;;
51877;SDS011;37911;51.526;11.536;2023-08-12T11:18:46;21.08;;;14.98;;
51877;SDS011;37911;51.526;11.536;2023-08-12T11:21:50;25.08;;;22.17;;
51877;SDS011;37911;51.526;11.536;2023-08-12T11:24:57;15.50;;;9.50;;
51877;SDS011;37911;51.526;11.536;2023-08-12T11:28:01;21.23;;;16.30;;
51877;SDS011;37911;51.526;11.536;2023-08-12T11:31:06;8.52;;;4.35;;
51877;SDS011;37911;51.526;11.536;2023-08-12T11:34:10;6.90;;;3.20;;
51877;SDS011;37911;51.526;11.536;2023-08-12T11:37:14;7.43;;;4.03;;
51877;SDS011;37911;51.526;11.536;2023-08-12T11:40:21;5.50;;;3.50;;
51877;SDS011;37911;51.526;11.536;2023-08-12T11:43:26;6.47;;;3.47;;
51877;SDS011;37911;51.526;11.536;2023-08-12T11:46:32;7.82;;;3.53;;
51877;SDS011;37911;51.526;11.536;2023-08-12T11:49:35;8.25;;;3.85;;
51877;SDS011;37911;51.526;11.536;2023-08-12T11:52:39;17.67;;;4.88;;
51877;SDS011;37911;51.526;11.536;2023-08-12T11:55:46;16.42;;;6.60;;
51877;SDS011;37911;51.526;11.536;2023-08-12T11:58:49;18.65;;;10.68;;
51877;SDS011;37911;51.526;11.536;2023-08-12T12:01:54;6.97;;;4.38;;
51877;SDS011;37911;51.526;11.536;2023-08-12T12:04:57;8.35;;;3.50;;
51877;SDS011;37911;51.526;11.536;2023-08-12T12:08:01;12.32;;;7.97;;
51877;SDS011;37911;51.526;11.536;2023-08-12T12:11:08;8.25;;;5.22;;
51877;SDS011;37911;51.526;11.536;2023-08-12T12:14:11;7.90;;;4.38;;
51877;SDS011;37911;51.526;11.536;2023-08-12T12:17:15;5.75;;;3.13;;
51877;SDS011;37911;51.526;11.536;2023-08-12T12:20:18;3.58;;;2.78;;
51877;SDS011;37911;51.526;11.536;2023-08-12T12:23:26;7.15;;;3.10;;
51877;SDS011;37911;51.526;11.536;2023-08-12T12:26:34;5.97;;;3.10;;
51877;SDS011;37911;51.526;11.536;2023-08-12T12:29:38;6.85;;;3.17;;
51877;SDS011;37911;51.526;11.536;2023-08-12T12:32:41;7.50;;;3.17;;
51877;SDS011;37911;51.526;11.536;2023-08-12T12:35:45;6.00;;;2.85;;
51877;SDS011;37911;51.526;11.536;2023-08-12T12:38:48;10.90;;;3.15;;
51877;SDS011;37911;51.526;11.536;2023-08-12T12:41:54;5.40;;;3.05;;
51877;SDS011;37911;51.526;11.536;2023-08-12T12:44:59;10.95;;;7.10;;
51877;SDS011;37911;51.526;11.536;2023-08-12T12:48:04;9.32;;;3.72;;
51877;SDS011;37911;51.526;11.536;2023-08-12T12:51:07;5.65;;;3.40;;
51877;SDS011;37911;51.526;11.536;2023-08-12T12:54:11;6.43;;;3.15;;
51877;SDS011;37911;51.526;11.536;2023-08-12T12:57:17;7.78;;;4.13;;
51877;SDS011;37911;51.526;11.536;2023-08-12T13:00:21;8.88;;;4.10;;
51877;SDS011;37911;51.526;11.536;2023-08-12T13:03:25;10.45;;;4.55;;
51877;SDS011;37911;51.526;11.536;2023-08-12T13:06:29;8.45;;;4.78;;
51877;SDS011;37911;51.526;11.536;2023-08-12T13:09:32;12.18;;;9.23;;
51877;SDS011;37911;51.526;11.536;2023-08-12T13:12:38;34.80;;;32.15;;
51877;SDS011;37911;51.526;11.536;2023-08-12T13:15:42;16.77;;;15.23;;
51877;SDS011;37911;51.526;11.536;2023-08-12T13:18:46;17.02;;;15.50;;
51877;SDS011;37911;51.526;11.536;2023-08-12T13:21:49;33.58;;;30.83;;
51877;SDS011;37911;51.526;11.536;2023-08-12T13:24:53;12.35;;;8.27;;
51877;SDS011;37911;51.526;11.536;2023-08-12T13:27:59;12.35;;;7.00;;
51877;SDS011;37911;51.526;11.536;2023-08-12T13:31:02;8.98;;;6.20;;
51877;SDS011;37911;51.526;11.536;2023-08-12T13:34:09;17.17;;;11.10;;
51877;SDS011;37911;51.526;11.536;2023-08-12T13:37:12;7.55;;;4.28;;
51877;SDS011;37911;51.526;11.536;2023-08-12T13:40:16;12.30;;;7.03;;
51877;SDS011;37911;51.526;11.536;2023-08-12T13:43:22;8.68;;;4.38;;
51877;SDS011;37911;51.526;11.536;2023-08-12T13:46:25;8.90;;;4.30;;
51877;SDS011;37911;51.526;11.536;2023-08-12T13:49:30;4.55;;;2.35;;
51877;SDS011;37911;51.526;11.536;2023-08-12T13:52:34;3.88;;;2.30;;
51877;SDS011;37911;51.526;11.536;2023-08-12T13:55:38;4.10;;;1.90;;
51877;SDS011;37911;51.526;11.536;2023-08-12T13:58:44;2.65;;;1.40;;
51877;SDS011;37911;51.526;11.536;2023-08-12T14:01:47;1.30;;;1.20;;
51877;SDS011;37911;51.526;11.536;2023-08-12T14:04:51;2.83;;;1.42;;
51877;SDS011;37911;51.526;11.536;2023-08-12T14:07:54;5.15;;;1.40;;
51877;SDS011;37911;51.526;11.536;2023-08-12T14:10:59;2.78;;;1.70;;
51877;SDS011;37911;51.526;11.536;2023-08-12T14:14:05;14.55;;;10.48;;
51877;SDS011;37911;51.526;11.536;2023-08-12T14:17:09;3.10;;;1.77;;
51877;SDS011;37911;51.526;11.536;2023-08-12T14:20:14;31.60;;;10.35;;
51877;SDS011;37911;51.526;11.536;2023-08-12T14:23:18;7.15;;;2.10;;
51877;SDS011;37911;51.526;11.536;2023-08-12T14:26:21;3.30;;;2.00;;
51877;SDS011;37911;51.526;11.536;2023-08-12T14:29:28;4.05;;;1.75;;
51877;SDS011;37911;51.526;11.536;2023-08-12T14:32:31;3.55;;;1.80;;
51877;SDS011;37911;51.526;11.536;2023-08-12T14:35:35;2.03;;;1.70;;
51877;SDS011;37911;51.526;11.536;2023-08-12T14:38:38;5.80;;;1.80;;
51877;SDS011;37911;51.526;11.536;2023-08-12T14:41:42;3.70;;;1.80;;
51877;SDS011;37911;51.526;11.536;2023-08-12T14:44:48;3.38;;;1.83;;
51877;SDS011;37911;51.526;11.536;2023-08-12T14:47:51;4.63;;;2.08;;
51877;SDS011;37911;51.526;11.536;2023-08-12T14:50:55;19.98;;;3.88;;
51877;SDS011;37911;51.526;11.536;2023-08-12T14:53:58;5.65;;;2.20;;
51877;SDS011;37911;51.526;11.536;2023-08-12T14:57:02;14.85;;;7.45;;
51877;SDS011;37911;51.526;11.536;2023-08-12T15:00:09;9.45;;;3.20;;
51877;SDS011;37911;51.526;11.536;2023-08-12T15:03:14;10.27;;;2.80;;
51877;SDS011;37911;51.526;11.536;2023-08-12T15:06:18;4.97;;;2.30;;
51877;SDS011;37911;51.526;11.536;2023-08-12T15:09:22;17.45;;;13.52;;
51877;SDS011;37911;51.526;11.536;2023-08-12T15:12:26;107.15;;;95.55;;
51877;SDS011;37911;51.526;11.536;2023-08-12T15:15:32;8.45;;;2.05;;
51877;SDS011;37911;51.526;11.536;2023-08-12T15:18:36;8.45;;;3.83;;
51877;SDS011;37911;51.526;11.536;2023-08-12T15:21:39;28.30;;;20.63;;
51877;SDS011;37911;51.526;11.536;2023-08-12T15:24:43;4.50;;;2.03;;
51877;SDS011;37911;51.526;11.536;2023-08-12T15:27:46;11.38;;;7.43;;
51877;SDS011;37911;51.526;11.536;2023-08-12T15:30:52;8.40;;;6.00;;
51877;SDS011;37911;51.526;11.536;2023-08-12T15:33:56;68.90;;;57.90;;
51877;SDS011;37911;51.526;11.536;2023-08-12T15:36:59;108.20;;;86.55;;
51877;SDS011;37911;51.526;11.536;2023-08-12T15:40:04;62.88;;;37.55;;
51877;SDS011;37911;51.526;11.536;2023-08-12T15:43:09;40.83;;;26.40;;
51877;SDS011;37911;51.526;11.536;2023-08-12T15:46:15;110.03;;;44.97;;
51877;SDS011;37911;51.526;11.536;2023-08-12T15:49:19;4.60;;;1.85;;
51877;SDS011;37911;51.526;11.536;2023-08-12T15:52:22;10.90;;;6.32;;
51877;SDS011;37911;51.526;11.536;2023-08-12T15:55:26;22.23;;;17.25;;
51877;SDS011;37911;51.526;11.536;2023-08-12T15:58:30;6.10;;;4.07;;
51877;SDS011;37911;51.526;11.536;2023-08-12T16:01:36;3.00;;;1.90;;
51877;SDS011;37911;51.526;11.536;2023-08-12T16:04:39;3.33;;;1.80;;
51877;SDS011;37911;51.526;11.536;2023-08-12T16:07:43;9.07;;;2.00;;
51877;SDS011;37911;51.526;11.536;2023-08-12T16:10:46;3.22;;;2.05;;
51877;SDS011;37911;51.526;11.536;2023-08-12T16:13:49;4.53;;;2.00;;
51877;SDS011;37911;51.526;11.536;2023-08-12T16:16:55;11.63;;;2.63;;
51877;SDS011;37911;51.526;11.536;2023-08-12T16:19:59;6.57;;;2.38;;
51877;SDS011;37911;51.526;11.536;2023-08-12T16:23:03;56.08;;;45.58;;
51877;SDS011;37911;51.526;11.536;2023-08-12T16:26:07;48.83;;;37.55;;
51877;SDS011;37911;51.526;11.536;2023-08-12T16:29:10;137.43;;;77.30;;
51877;SDS011;37911;51.526;11.536;2023-08-12T16:32:17;103.07;;;93.68;;
51877;SDS011;37911;51.526;11.536;2023-08-12T16:35:20;53.50;;;45.25;;
51877;SDS011;37911;51.526;11.536;2023-08-12T16:38:24;84.97;;;75.75;;
51877;SDS011;37911;51.526;11.536;2023-08-12T16:41:28;53.72;;;39.85;;
51877;SDS011;37911;51.526;11.536;2023-08-12T16:44:32;15.52;;;12.55;;
51877;SDS011;37911;51.526;11.536;2023-08-12T16:47:38;406.08;;;156.40;;
51877;SDS011;37911;51.526;11.536;2023-08-12T16:50:42;596.30;;;133.30;;
51877;SDS011;37911;51.526;11.536;2023-08-12T16:53:46;295.98;;;54.22;;
51877;SDS011;37911;51.526;11.536;2023-08-12T16:56:49;113.72;;;31.98;;
51877;SDS011;37911;51.526;11.536;2023-08-12T16:59:53;50.80;;;15.27;;
51877;SDS011;37911;51.526;11.536;2023-08-12T17:02:59;113.68;;;80.35;;
51877;SDS011;37911;51.526;11.536;2023-08-12T17:06:03;152.20;;;124.85;;
51877;SDS011;37911;51.526;11.536;2023-08-12T17:09:07;10.48;;;4.75;;
51877;SDS011;37911;51.526;11.536;2023-08-12T17:12:11;11.20;;;4.72;;
51877;SDS011;37911;51.526;11.536;2023-08-12T17:15:14;6.65;;;3.00;;
51877;SDS011;37911;51.526;11.536;2023-08-12T17:18:20;8.75;;;3.22;;
51877;SDS011;37911;51.526;11.536;2023-08-12T17:21:24;7.13;;;3.20;;
51877;SDS011;37911;51.526;11.536;2023-08-12T17:24:27;9.15;;;3.58;;
51877;SDS011;37911;51.526;11.536;2023-08-12T17:27:30;6.93;;;3.83;;
51877;SDS011;37911;51.526;11.536;2023-08-12T17:30:34;12.18;;;3.75;;
51877;SDS011;37911;51.526;11.536;2023-08-12T17:33:40;7.68;;;3.63;;
51877;SDS011;37911;51.526;11.536;2023-08-12T17:36:44;7.25;;;3.75;;
51877;SDS011;37911;51.526;11.536;2023-08-12T17:39:47;7.40;;;3.70;;
51877;SDS011;37911;51.526;11.536;2023-08-12T17:42:51;8.18;;;3.85;;
51877;SDS011;37911;51.526;11.536;2023-08-12T17:45:54;6.55;;;3.42;;
51877;SDS011;37911;51.526;11.536;2023-08-12T17:49:00;9.52;;;3.80;;
51877;SDS011;37911;51.526;11.536;2023-08-12T17:52:04;8.23;;;4.00;;
51877;SDS011;37911;51.526;11.536;2023-08-12T17:55:08;7.85;;;3.90;;
51877;SDS011;37911;51.526;11.536;2023-08-12T17:58:12;9.50;;;3.90;;
51877;SDS011;37911;51.526;11.536;2023-08-12T18:01:16;8.13;;;4.18;;
51877;SDS011;37911;51.526;11.536;2023-08-12T18:04:22;8.60;;;3.78;;